Time;durP1;ratioP1;P1;durP2;ratioP2;P2;SDS_P1;SDS_P2;PMS_P1;PMS_P2;Temp;Humidity;BMP_temperature;BMP_pressure;BME280_temperature;BME280_humidity;BME280_pressure;Samples;Min_cycle;Max_cycle;Signal;HPM_P1;HPM_P2
2023/01/16 00:01:52;;;;;;;;;;;3.30;99.90;;;;;;5050832;28;19963;-78
2023/01/16 00:04:18;;;;;;;;;;;3.30;99.90;;;;;;5050589;28;19915;-76
2023/01/16 00:06:43;;;;;;;;;;;3.30;99.90;;;;;;5066079;28;19916;-76
2023/01/16 00:09:09;;;;;;;;;;;3.30;99.90;;;;;;5070645;28;19939;-76
2023/01/16 00:11:35;;;;;;;;;;;3.30;99.90;;;;;;5070877;28;20324;-77
2023/01/16 00:14:00;;;;;;;;;;;3.30;99.90;;;;;;5070390;28;19909;-76
2023/01/16 00:16:27;;;;;;;;;;;3.30;99.90;;;;;;5071138;28;19912;-76
2023/01/16 00:18:52;;;;;;;;;;;3.30;99.90;;;;;;5070041;28;20390;-77
2023/01/16 00:21:19;;;;;;;;;;;3.30;99.90;;;;;;5070802;28;19908;-77
2023/01/16 00:23:45;;;;;;;;;;;3.20;99.90;;;;;;5070826;28;19931;-76
2023/01/16 00:26:11;;;;;;;;;;;3.20;99.90;;;;;;5070127;28;20361;-78
2023/01/16 00:28:38;;;;;;;;;;;3.20;99.90;;;;;;5069607;28;19912;-79
2023/01/16 00:31:06;;;;;;;;;;;3.20;99.90;;;;;;5069963;28;19908;-77
2023/01/16 00:33:33;;;;;;;;;;;3.20;99.90;;;;;;5070447;28;19916;-77
2023/01/16 00:35:58;;;;;;;;;;;3.20;99.90;;;;;;5063197;28;20317;-77
2023/01/16 00:38:24;;;;;;;;;;;3.20;99.90;;;;;;5050902;28;19908;-77
2023/01/16 00:40:49;;;;;;;;;;;3.20;99.90;;;;;;5059997;28;19962;-81
2023/01/16 00:43:15;;;;;;;;;;;3.30;99.90;;;;;;5069434;28;19916;-79
2023/01/16 00:45:40;;;;;;;;;;;3.40;99.90;;;;;;5069403;28;20286;-77
2023/01/16 00:48:06;;;;;;;;;;;3.40;99.90;;;;;;5068293;28;19967;-77
2023/01/16 00:50:32;;;;;;;;;;;3.40;99.90;;;;;;5070526;28;19995;-76
2023/01/16 00:52:57;;;;;;;;;;;3.50;99.90;;;;;;5069900;28;20241;-77
2023/01/16 00:55:23;;;;;;;;;;;3.50;99.90;;;;;;5070030;28;19908;-77
2023/01/16 00:57:48;;;;;;;;;;;3.50;99.90;;;;;;5070372;28;19961;-77
2023/01/16 01:00:15;;;;;;;;;;;3.50;99.90;;;;;;5069514;28;19920;-77
2023/01/16 01:02:40;;;;;;;;;;;3.60;99.90;;;;;;5070221;28;20300;-77
2023/01/16 01:05:06;;;;;;;;;;;3.50;99.90;;;;;;5069439;28;19957;-76
2023/01/16 01:07:32;;;;;;;;;;;3.50;99.90;;;;;;5070051;28;20250;-76
2023/01/16 01:09:57;;;;;;;;;;;3.60;99.90;;;;;;5069103;28;19951;-77
2023/01/16 01:12:23;;;;;;;;;;;3.50;99.90;;;;;;5069850;28;19955;-76
2023/01/16 01:14:49;;;;;;;;;;;3.50;99.90;;;;;;5069912;28;19909;-78
2023/01/16 01:17:14;;;;;;;;;;;3.60;99.90;;;;;;5069615;28;19996;-80
2023/01/16 01:19:40;;;;;;;;;;;3.60;99.90;;;;;;5070124;28;20011;-77
2023/01/16 01:22:05;;;;;;;;;;;3.60;99.90;;;;;;5069564;28;19987;-77
2023/01/16 01:24:31;;;;;;;;;;;3.60;99.90;;;;;;5069596;28;19931;-77
2023/01/16 01:26:57;;;;;;;;;;;3.50;99.90;;;;;;5069351;28;19920;-78
2023/01/16 01:29:22;;;;;;;;;;;3.50;99.90;;;;;;5068516;28;19919;-77
2023/01/16 01:31:48;;;;;;;;;;;3.60;99.90;;;;;;5069997;28;19932;-77
2023/01/16 01:34:13;;;;;;;;;;;3.60;99.90;;;;;;5069185;28;19955;-76
2023/01/16 01:36:39;;;;;;;;;;;3.60;99.90;;;;;;5069487;28;19920;-77
2023/01/16 01:39:04;;;;;;;;;;;3.60;99.90;;;;;;5069314;28;20333;-76
2023/01/16 01:41:30;;;;;;;;;;;3.60;99.90;;;;;;5070359;28;19974;-76
2023/01/16 01:43:56;;;;;;;;;;;3.60;99.90;;;;;;5072691;28;19999;-78
2023/01/16 01:46:34;;;;;;;;;;;3.60;99.90;;;;;;5074224;28;19913;-76
2023/01/16 01:49:03;;;;;;;;;;;3.60;99.90;;;;;;5073047;28;20003;-76
2023/01/16 01:51:31;;;;;;;;;;;3.60;99.90;;;;;;5073676;28;20063;-76
2023/01/16 01:54:00;;;;;;;;;;;3.60;99.90;;;;;;5073164;28;19924;-77
2023/01/16 01:56:33;;;;;;;;;;;3.60;99.90;;;;;;5073557;28;19912;-76
2023/01/16 01:59:01;;;;;;;;;;;3.60;99.90;;;;;;5073558;28;19916;-78
2023/01/16 02:01:27;;;;;;;;;;;3.60;99.90;;;;;;5073934;28;19912;-77
2023/01/16 02:03:57;;;;;;;;;;;3.60;99.90;;;;;;5073589;28;19908;-83
2023/01/16 02:06:27;;;;;;;;;;;3.60;99.90;;;;;;5074055;28;19913;-76
2023/01/16 02:08:54;;;;;;;;;;;3.60;99.90;;;;;;5073430;28;19912;-82
2023/01/16 02:11:46;;;;;;;;;;;3.60;99.90;;;;;;5074087;28;19908;-76
2023/01/16 02:14:13;;;;;;;;;;;3.60;99.90;;;;;;5070803;28;19913;-77
2023/01/16 02:19:23;;;;;;;;;;;3.60;99.90;;;;;;5074268;28;19919;-77
2023/01/16 02:21:51;;;;;;;;;;;3.60;99.90;;;;;;5073778;28;20007;-76
2023/01/16 02:24:35;;;;;;;;;;;3.60;99.90;;;;;;5072406;28;19932;-77
2023/01/16 02:27:10;;;;;;;;;;;3.60;99.90;;;;;;5072987;28;19930;-75
2023/01/16 02:29:54;;;;;;;;;;;3.60;99.90;;;;;;5073587;28;19924;-77
2023/01/16 02:32:28;;;;;;;;;;;3.60;99.90;;;;;;5073316;28;19908;-77
2023/01/16 02:35:06;;;;;;;;;;;3.50;99.90;;;;;;5073738;28;20000;-84
2023/01/16 02:37:40;;;;;;;;;;;3.50;99.90;;;;;;5073395;28;19909;-77
2023/01/16 02:40:15;;;;;;;;;;;3.50;99.90;;;;;;5072926;28;19908;-74
2023/01/16 02:43:05;;;;;;;;;;;3.50;99.90;;;;;;5073047;28;19915;-74
2023/01/16 02:45:43;;;;;;;;;;;3.50;99.90;;;;;;5073255;28;20050;-75
2023/01/16 02:48:18;;;;;;;;;;;3.40;99.90;;;;;;5072221;28;19982;-76
2023/01/16 02:50:44;;;;;;;;;;;3.50;99.90;;;;;;5072947;28;20020;-76
2023/01/16 02:53:14;;;;;;;;;;;3.50;99.90;;;;;;5071903;28;20456;-76
2023/01/16 02:55:48;;;;;;;;;;;3.50;99.90;;;;;;5073192;28;19909;-76
2023/01/16 02:58:15;;;;;;;;;;;3.50;99.90;;;;;;5052387;28;20009;-76
2023/01/16 03:00:56;;;;;;;;;;;3.50;99.90;;;;;;5063450;28;20247;-76
2023/01/16 03:03:40;;;;;;;;;;;3.50;99.90;;;;;;5072325;28;20366;-77
2023/01/16 03:06:14;;;;;;;;;;;3.50;99.90;;;;;;5070803;28;20315;-76
2023/01/16 03:08:46;;;;;;;;;;;3.50;99.90;;;;;;5072402;28;19912;-76
2023/01/16 03:11:14;;;;;;;;;;;3.50;99.90;;;;;;5072327;28;19909;-76
2023/01/16 03:14:02;;;;;;;;;;;3.50;99.90;;;;;;5072805;28;19937;-76
2023/01/16 03:16:28;;;;;;;;;;;3.40;99.90;;;;;;5063791;28;20321;-76
2023/01/16 03:19:11;;;;;;;;;;;3.40;99.90;;;;;;5072681;28;19914;-76
2023/01/16 03:21:49;;;;;;;;;;;3.30;99.90;;;;;;5072192;28;20281;-76
2023/01/16 03:24:35;;;;;;;;;;;3.20;99.90;;;;;;5072119;28;19908;-76
2023/01/16 03:27:08;;;;;;;;;;;3.20;99.90;;;;;;5060614;28;19917;-78
2023/01/16 03:29:37;;;;;;;;;;;3.10;99.90;;;;;;5072236;28;20382;-76
2023/01/16 03:32:09;;;;;;;;;;;3.10;99.90;;;;;;5071911;28;19908;-77
2023/01/16 03:34:40;;;;;;;;;;;3.10;99.90;;;;;;5072260;28;19917;-76
2023/01/16 03:37:20;;;;;;;;;;;3.00;99.90;;;;;;5057030;28;19913;-80
2023/01/16 03:39:47;;;;;;;;;;;3.00;99.90;;;;;;5052201;28;19924;-76
2023/01/16 03:42:15;;;;;;;;;;;3.00;99.90;;;;;;5051191;28;19909;-76
2023/01/16 03:44:50;;;;;;;;;;;2.90;99.90;;;;;;5051804;28;19970;-76
2023/01/16 03:47:36;;;;;;;;;;;2.90;99.90;;;;;;5051872;28;19913;-76
2023/01/16 03:50:03;;;;;;;;;;;2.90;99.90;;;;;;5051708;28;19912;-77
2023/01/16 03:52:35;;;;;;;;;;;2.90;99.90;;;;;;5052205;28;19909;-76
2023/01/16 03:55:16;;;;;;;;;;;2.80;99.90;;;;;;5051102;28;20285;-81
2023/01/16 03:57:49;;;;;;;;;;;2.80;99.90;;;;;;5051930;28;19913;-76
2023/01/16 04:00:15;;;;;;;;;;;2.80;99.90;;;;;;5050138;28;19991;-76
2023/01/16 04:02:40;;;;;;;;;;;2.80;99.90;;;;;;5051356;28;20312;-75
2023/01/16 04:05:06;;;;;;;;;;;2.70;99.90;;;;;;5050615;28;19970;-76
2023/01/16 04:07:38;;;;;;;;;;;2.70;99.90;;;;;;5051474;28;19913;-75
2023/01/16 04:10:05;;;;;;;;;;;2.70;99.90;;;;;;5051589;28;19944;-76
2023/01/16 04:12:34;;;;;;;;;;;2.70;99.90;;;;;;5060711;28;20257;-76
2023/01/16 04:15:01;;;;;;;;;;;2.60;99.90;;;;;;5071449;28;19912;-77
2023/01/16 04:17:27;;;;;;;;;;;2.60;99.90;;;;;;5070035;28;20277;-76
2023/01/16 04:19:53;;;;;;;;;;;2.50;99.90;;;;;;5071452;28;19908;-76
2023/01/16 04:22:24;;;;;;;;;;;2.50;99.90;;;;;;5070931;28;20341;-75
2023/01/16 04:24:50;;;;;;;;;;;2.50;99.90;;;;;;5071436;28;19915;-76
2023/01/16 04:27:17;;;;;;;;;;;2.50;99.90;;;;;;5070495;28;19916;-76
2023/01/16 04:29:42;;;;;;;;;;;2.50;99.90;;;;;;5071353;28;19908;-76
2023/01/16 04:32:08;;;;;;;;;;;2.40;99.90;;;;;;5070658;28;19908;-77
2023/01/16 04:34:33;;;;;;;;;;;2.40;99.90;;;;;;5070969;28;20258;-75
2023/01/16 04:36:59;;;;;;;;;;;2.40;99.90;;;;;;5071285;28;20356;-75
2023/01/16 04:39:24;;;;;;;;;;;2.30;99.90;;;;;;5070446;28;19974;-76
2023/01/16 04:41:50;;;;;;;;;;;2.30;99.90;;;;;;5069907;28;19909;-74
2023/01/16 04:44:16;;;;;;;;;;;2.30;99.90;;;;;;5070548;28;20180;-74
2023/01/16 04:46:42;;;;;;;;;;;2.30;99.90;;;;;;5071162;28;19985;-75
2023/01/16 04:49:08;;;;;;;;;;;2.20;99.90;;;;;;5055401;28;19939;-75
2023/01/16 04:51:34;;;;;;;;;;;2.20;99.90;;;;;;5049526;28;20335;-75
2023/01/16 04:53:59;;;;;;;;;;;2.20;99.90;;;;;;5050853;28;19937;-76
2023/01/16 04:56:25;;;;;;;;;;;2.20;99.90;;;;;;5050715;28;20012;-76
2023/01/16 04:58:52;;;;;;;;;;;2.20;99.90;;;;;;5051397;28;19908;-76
2023/01/16 05:01:18;;;;;;;;;;;2.20;99.90;;;;;;5050586;28;19951;-76
2023/01/16 05:03:44;;;;;;;;;;;2.10;99.90;;;;;;5051002;28;19947;-76
2023/01/16 05:06:09;;;;;;;;;;;2.10;99.90;;;;;;5050169;28;19913;-77
2023/01/16 05:08:35;;;;;;;;;;;2.10;99.90;;;;;;5051087;28;19913;-78
2023/01/16 05:11:01;;;;;;;;;;;2.10;99.90;;;;;;5050660;28;20385;-76
2023/01/16 05:13:27;;;;;;;;;;;2.10;99.90;;;;;;5050244;28;19923;-76
2023/01/16 05:15:52;;;;;;;;;;;2.10;99.90;;;;;;5064569;28;20274;-75
2023/01/16 05:18:18;;;;;;;;;;;2.00;99.90;;;;;;5074030;28;19913;-75
2023/01/16 05:20:44;;;;;;;;;;;2.00;99.90;;;;;;5073252;28;20331;-75
2023/01/16 05:23:10;;;;;;;;;;;2.00;99.90;;;;;;5073869;28;19908;-76
2023/01/16 05:25:36;;;;;;;;;;;1.90;99.90;;;;;;5055738;28;20025;-76
2023/01/16 05:28:02;;;;;;;;;;;1.90;99.90;;;;;;5054785;28;20029;-76
2023/01/16 05:30:28;;;;;;;;;;;1.90;99.90;;;;;;5053960;28;19919;-76
2023/01/16 05:32:53;;;;;;;;;;;1.90;99.90;;;;;;5054968;28;20250;-76
2023/01/16 05:35:19;;;;;;;;;;;1.90;99.90;;;;;;5053708;28;19990;-76
2023/01/16 05:37:45;;;;;;;;;;;1.80;99.90;;;;;;5054915;28;19909;-76
2023/01/16 05:40:11;;;;;;;;;;;1.80;99.90;;;;;;5054112;28;19916;-77
2023/01/16 05:42:37;;;;;;;;;;;1.80;99.90;;;;;;5054602;28;20345;-76
2023/01/16 05:45:02;;;;;;;;;;;1.80;99.90;;;;;;5054678;28;20416;-76
2023/01/16 05:47:28;;;;;;;;;;;1.80;99.90;;;;;;5054000;28;20666;-76
2023/01/16 05:49:57;;;;;;;;;;;1.80;99.90;;;;;;5054529;28;19909;-77
2023/01/16 05:52:24;;;;;;;;;;;1.70;99.90;;;;;;5053963;28;20346;-77
2023/01/16 05:54:51;;;;;;;;;;;1.70;99.90;;;;;;5053940;28;19990;-76
2023/01/16 05:57:16;;;;;;;;;;;1.70;99.90;;;;;;5054135;28;19921;-77
2023/01/16 05:59:45;;;;;;;;;;;1.70;99.90;;;;;;5054006;28;19912;-76
2023/01/16 06:02:11;;;;;;;;;;;1.60;99.90;;;;;;5052538;28;20379;-78
2023/01/16 06:04:37;;;;;;;;;;;1.60;99.90;;;;;;5054214;28;20488;-76
2023/01/16 06:07:03;;;;;;;;;;;1.60;99.90;;;;;;5054174;28;19956;-77
2023/01/16 06:09:28;;;;;;;;;;;1.50;99.90;;;;;;5053603;28;20526;-76
2023/01/16 06:11:54;;;;;;;;;;;1.50;99.90;;;;;;5053956;28;19939;-75
2023/01/16 06:14:19;;;;;;;;;;;1.40;99.90;;;;;;5054340;28;19909;-75
2023/01/16 06:16:45;;;;;;;;;;;1.40;99.90;;;;;;5073840;28;20400;-75
2023/01/16 06:19:10;;;;;;;;;;;1.40;99.90;;;;;;5073097;28;20368;-80
2023/01/16 06:21:36;;;;;;;;;;;1.40;99.90;;;;;;5073819;28;19965;-75
2023/01/16 06:24:02;;;;;;;;;;;1.40;99.90;;;;;;5073837;28;19908;-76
2023/01/16 06:26:27;;;;;;;;;;;1.30;99.90;;;;;;5073418;28;19919;-75
2023/01/16 06:28:55;;;;;;;;;;;1.30;99.90;;;;;;5073696;28;19913;-75
2023/01/16 06:31:21;;;;;;;;;;;1.20;99.90;;;;;;5073081;28;20007;-76
2023/01/16 06:33:47;;;;;;;;;;;1.20;99.90;;;;;;5073772;28;20081;-76
2023/01/16 06:36:12;;;;;;;;;;;1.20;99.90;;;;;;5066177;28;19913;-81
2023/01/16 06:38:38;;;;;;;;;;;1.10;99.90;;;;;;5054325;28;20418;-76
2023/01/16 06:41:03;;;;;;;;;;;1.10;99.90;;;;;;5053364;28;19959;-76
2023/01/16 06:43:29;;;;;;;;;;;1.10;99.90;;;;;;5053032;28;20334;-76
2023/01/16 06:45:55;;;;;;;;;;;1.00;99.90;;;;;;5054099;28;19999;-76
2023/01/16 06:48:21;;;;;;;;;;;1.00;99.90;;;;;;5052300;28;19917;-76
2023/01/16 06:50:46;;;;;;;;;;;1.00;99.90;;;;;;5053088;28;19936;-76
2023/01/16 06:53:12;;;;;;;;;;;1.00;99.90;;;;;;5052940;28;19916;-81
2023/01/16 06:55:38;;;;;;;;;;;1.00;99.90;;;;;;5052806;28;19921;-75
2023/01/16 06:58:03;;;;;;;;;;;1.00;99.90;;;;;;5052791;28;20262;-76
2023/01/16 07:00:29;;;;;;;;;;;0.90;99.90;;;;;;5052297;28;20230;-76
2023/01/16 07:02:55;;;;;;;;;;;0.90;99.90;;;;;;5052846;28;19909;-77
2023/01/16 07:05:21;;;;;;;;;;;0.90;99.90;;;;;;5052156;28;19913;-76
2023/01/16 07:07:47;;;;;;;;;;;0.90;99.90;;;;;;5052241;28;20285;-75
2023/01/16 07:10:13;;;;;;;;;;;0.80;99.90;;;;;;5052025;28;19917;-80
2023/01/16 07:12:39;;;;;;;;;;;0.80;99.90;;;;;;5060970;28;19939;-76
2023/01/16 07:23:22;;;;;;;;;;;0.70;99.90;;;;;;5071890;28;19919;-76
2023/01/16 07:25:47;;;;;;;;;;;0.70;99.90;;;;;;5072174;28;20229;-76
2023/01/16 07:28:13;;;;;;;;;;;0.70;99.90;;;;;;5072265;28;19916;-80
2023/01/16 07:30:39;;;;;;;;;;;0.70;99.90;;;;;;5071891;28;19908;-76
2023/01/16 07:33:05;;;;;;;;;;;0.80;99.90;;;;;;5071803;28;19974;-76
2023/01/16 07:35:30;;;;;;;;;;;0.70;99.90;;;;;;5071345;28;19912;-76
2023/01/16 07:37:56;;;;;;;;;;;0.70;99.90;;;;;;5071954;28;20360;-75
2023/01/16 07:40:23;;;;;;;;;;;0.80;99.90;;;;;;5063726;28;19909;-76
2023/01/16 07:42:51;;;;;;;;;;;0.70;99.90;;;;;;5060833;28;20306;-75
2023/01/16 07:45:17;;;;;;;;;;;0.60;99.90;;;;;;5054501;28;20071;-79
2023/01/16 07:47:42;;;;;;;;;;;0.70;99.90;;;;;;5054356;28;20059;-75
2023/01/16 07:50:08;;;;;;;;;;;0.60;99.90;;;;;;5071691;28;19912;-75
2023/01/16 07:52:34;;;;;;;;;;;0.60;99.90;;;;;;5071003;28;19916;-75
2023/01/16 07:54:59;;;;;;;;;;;0.60;99.90;;;;;;5067266;28;20011;-76
2023/01/16 07:57:25;;;;;;;;;;;0.60;99.90;;;;;;5058917;28;19958;-76
2023/01/16 07:59:51;;;;;;;;;;;0.60;99.90;;;;;;5060419;28;19997;-76
2023/01/16 08:02:16;;;;;;;;;;;0.60;99.90;;;;;;5059435;28;19924;-80
2023/01/16 08:04:42;;;;;;;;;;;0.50;99.90;;;;;;5059840;28;20089;-75
2023/01/16 08:07:08;;;;;;;;;;;0.50;99.90;;;;;;5060229;28;19916;-76
2023/01/16 08:09:33;;;;;;;;;;;0.50;99.90;;;;;;5050652;28;19989;-76
2023/01/16 08:11:59;;;;;;;;;;;0.50;99.90;;;;;;5050923;28;20342;-76
2023/01/16 08:14:24;;;;;;;;;;;0.50;99.90;;;;;;5055950;28;19935;-76
2023/01/16 08:16:50;;;;;;;;;;;0.50;99.90;;;;;;5061229;28;19924;-75
2023/01/16 08:19:15;;;;;;;;;;;0.40;99.90;;;;;;5068446;28;19919;-75
2023/01/16 08:21:41;;;;;;;;;;;0.50;99.90;;;;;;5070263;28;19908;-75
2023/01/16 08:24:07;;;;;;;;;;;0.40;99.90;;;;;;5060119;28;20486;-74
2023/01/16 08:26:33;;;;;;;;;;;0.40;99.90;;;;;;5066644;28;19917;-75
2023/01/16 08:29:01;;;;;;;;;;;0.40;99.90;;;;;;5061222;28;19965;-75
2023/01/16 08:31:26;;;;;;;;;;;0.40;99.90;;;;;;5060024;28;20061;-75
2023/01/16 08:33:52;;;;;;;;;;;0.40;99.90;;;;;;5070537;28;20337;-75
2023/01/16 08:36:20;;;;;;;;;;;0.40;99.90;;;;;;5070842;28;19915;-76
2023/01/16 08:38:46;;;;;;;;;;;0.40;99.90;;;;;;5070776;28;19928;-76
2023/01/16 08:52:08;;;;;;;;;;;0.40;99.90;;;;;;5070931;28;19951;-75
2023/01/16 08:54:33;;;;;;;;;;;0.40;99.90;;;;;;5070348;28;19960;-76
2023/01/16 08:56:59;;;;;;;;;;;0.50;99.90;;;;;;5071049;28;19916;-76
2023/01/16 08:59:24;;;;;;;;;;;0.50;99.90;;;;;;5069806;28;19912;-76
2023/01/16 09:01:50;;;;;;;;;;;0.50;99.90;;;;;;5050429;28;19915;-76
2023/01/16 09:04:16;;;;;;;;;;;0.50;99.90;;;;;;5050309;28;19909;-76
2023/01/16 09:06:41;;;;;;;;;;;0.60;99.90;;;;;;5049694;28;19908;-76
2023/01/16 09:09:07;;;;;;;;;;;0.70;99.90;;;;;;5050296;28;19916;-75
2023/01/16 09:14:17;;;;;;;;;;;0.60;99.90;;;;;;5050428;28;20297;-75
2023/01/16 09:16:43;;;;;;;;;;;0.70;99.90;;;;;;5048511;28;19913;-75
2023/01/16 09:19:09;;;;;;;;;;;0.70;99.90;;;;;;5062467;28;20369;-75
2023/01/16 09:21:34;;;;;;;;;;;0.80;99.90;;;;;;5071543;28;20041;-75
2023/01/16 09:24:00;;;;;;;;;;;0.80;99.90;;;;;;5071029;28;19920;-76
2023/01/16 09:26:25;;;;;;;;;;;0.80;99.90;;;;;;5070640;28;19912;-76
2023/01/16 09:28:51;;;;;;;;;;;0.80;99.90;;;;;;5070654;28;19920;-76
2023/01/16 09:31:18;;;;;;;;;;;0.80;99.90;;;;;;5070847;28;19919;-76
2023/01/16 09:33:44;;;;;;;;;;;0.90;99.90;;;;;;5070019;28;19956;-76
2023/01/16 09:36:10;;;;;;;;;;;0.90;99.90;;;;;;5063902;28;19956;-76
2023/01/16 09:38:35;;;;;;;;;;;0.90;99.90;;;;;;5049951;28;19955;-76
2023/01/16 09:41:01;;;;;;;;;;;0.90;99.90;;;;;;5050375;28;19999;-76
2023/01/16 09:43:40;;;;;;;;;;;0.90;99.90;;;;;;5049459;28;20421;-76
2023/01/16 09:46:11;;;;;;;;;;;1.00;99.90;;;;;;5050793;28;19931;-75
2023/01/16 09:48:55;;;;;;;;;;;0.90;99.90;;;;;;5055120;28;19981;-76
2023/01/16 09:51:26;;;;;;;;;;;1.00;99.90;;;;;;5060017;28;20199;-77
2023/01/16 09:59:29;;;;;;;;;;;1.10;99.90;;;;;;5057614;28;20529;-77
2023/01/16 10:01:59;;;;;;;;;;;1.10;99.90;;;;;;5058911;28;19958;-75
2023/01/16 10:04:25;;;;;;;;;;;1.10;99.90;;;;;;5063601;28;19909;-80
2023/01/16 10:07:09;;;;;;;;;;;1.10;99.90;;;;;;5058311;28;20012;-77
2023/01/16 10:09:35;;;;;;;;;;;1.20;99.90;;;;;;5067264;28;19919;-76
2023/01/16 10:12:11;;;;;;;;;;;1.20;99.90;;;;;;5069121;28;19912;-76
2023/01/16 10:14:55;;;;;;;;;;;1.20;99.90;;;;;;5054619;28;20024;-76
2023/01/16 10:17:23;;;;;;;;;;;1.20;99.90;;;;;;5054273;28;19916;-76
2023/01/16 10:19:52;;;;;;;;;;;1.20;99.90;;;;;;5072919;28;19909;-76
2023/01/16 10:22:23;;;;;;;;;;;1.20;99.90;;;;;;5073850;28;20053;-76
2023/01/16 10:24:57;;;;;;;;;;;1.20;99.90;;;;;;5073309;28;19921;-76
2023/01/16 10:27:23;;;;;;;;;;;1.20;99.90;;;;;;5074501;28;20442;-76
2023/01/16 10:29:52;;;;;;;;;;;1.30;99.90;;;;;;5074330;28;19999;-76
2023/01/16 10:32:21;;;;;;;;;;;1.30;99.90;;;;;;5074563;28;19927;-76
2023/01/16 10:35:00;;;;;;;;;;;1.30;99.90;;;;;;5074006;28;20475;-76
2023/01/16 10:37:26;;;;;;;;;;;1.40;99.90;;;;;;5074283;28;19909;-76
2023/01/16 10:39:52;;;;;;;;;;;1.40;99.90;;;;;;5073436;28;20358;-76
2023/01/16 10:50:53;;;;;;;;;;;1.50;99.90;;;;;;5073313;28;19968;-75
2023/01/16 10:53:19;;;;;;;;;;;1.60;99.90;;;;;;5073275;28;19999;-76
2023/01/16 10:55:46;;;;;;;;;;;1.60;99.90;;;;;;5072736;28;19924;-76
2023/01/16 10:58:26;;;;;;;;;;;1.60;99.90;;;;;;5073151;28;19912;-76
2023/01/16 11:00:53;;;;;;;;;;;1.70;99.90;;;;;;5072497;28;19990;-75
2023/01/16 11:03:27;;;;;;;;;;;1.70;99.90;;;;;;5073135;28;19909;-75
2023/01/16 11:06:04;;;;;;;;;;;1.70;99.90;;;;;;5072486;28;19912;-75
2023/01/16 11:08:30;;;;;;;;;;;1.80;99.90;;;;;;5072655;28;20269;-79
2023/01/16 11:10:56;;;;;;;;;;;1.80;99.90;;;;;;5072924;28;19915;-76
2023/01/16 11:18:53;;;;;;;;;;;1.90;99.90;;;;;;5071979;28;20376;-76
2023/01/16 11:21:32;;;;;;;;;;;2.00;99.90;;;;;;5073216;28;19909;-76
2023/01/16 11:24:03;;;;;;;;;;;2.00;99.90;;;;;;5072593;28;19919;-76
2023/01/16 11:26:29;;;;;;;;;;;2.00;99.90;;;;;;5072917;28;20273;-76
2023/01/16 11:28:56;;;;;;;;;;;2.00;99.90;;;;;;5072571;28;19912;-76
2023/01/16 11:31:25;;;;;;;;;;;2.00;99.90;;;;;;5074157;28;19924;-76
2023/01/16 11:33:57;;;;;;;;;;;2.00;99.90;;;;;;5073393;28;19935;-76
2023/01/16 11:36:24;;;;;;;;;;;2.00;99.90;;;;;;5072333;28;19908;-76
2023/01/16 11:38:50;;;;;;;;;;;2.10;99.90;;;;;;5071576;28;19908;-75
2023/01/16 11:41:17;;;;;;;;;;;2.10;99.90;;;;;;5072112;28;19908;-76
2023/01/16 11:46:27;;;;;;;;;;;2.10;99.90;;;;;;5071816;28;19922;-76
2023/01/16 11:49:03;;;;;;;;;;;2.20;99.90;;;;;;5071256;28;19908;-75
2023/01/16 11:51:30;;;;;;;;;;;2.20;99.90;;;;;;5071895;28;19909;-75
2023/01/16 11:53:56;;;;;;;;;;;2.20;99.90;;;;;;5071443;28;20254;-75
2023/01/16 11:56:24;;;;;;;;;;;2.30;99.90;;;;;;5072044;28;19908;-76
2023/01/16 11:59:10;;;;;;;;;;;2.30;99.90;;;;;;5071440;28;20265;-76
2023/01/16 12:04:29;;;;;;;;;;;2.40;99.90;;;;;;5051791;28;20380;-77
2023/01/16 12:07:03;;;;;;;;;;;2.40;99.90;;;;;;5051144;28;19959;-75
2023/01/16 12:09:34;;;;;;;;;;;2.40;99.90;;;;;;5051668;28;19923;-77
2023/01/16 12:14:54;;;;;;;;;;;2.40;99.90;;;;;;5050855;28;19919;-75
2023/01/16 12:17:38;;;;;;;;;;;2.50;99.90;;;;;;5051305;28;19908;-76
2023/01/16 12:20:22;;;;;;;;;;;2.50;99.90;;;;;;5051285;28;20516;-76
2023/01/16 12:22:51;;;;;;;;;;;2.60;99.90;;;;;;5050543;28;19970;-76
2023/01/16 12:25:16;;;;;;;;;;;2.60;99.90;;;;;;5050671;28;20066;-77
2023/01/16 12:28:02;;;;;;;;;;;2.60;99.90;;;;;;5050805;28;20003;-77
2023/01/16 12:30:36;;;;;;;;;;;2.60;99.90;;;;;;5050948;28;19913;-75
2023/01/16 12:33:26;;;;;;;;;;;2.60;99.90;;;;;;5051019;28;19909;-75
2023/01/16 12:36:15;;;;;;;;;;;2.60;99.90;;;;;;5050509;28;19913;-76
2023/01/16 12:39:10;;;;;;;;;;;2.60;99.90;;;;;;5050879;28;20003;-76
2023/01/16 12:44:40;;;;;;;;;;;2.60;99.90;;;;;;5050971;28;20038;-76
2023/01/16 12:47:15;;;;;;;;;;;2.70;99.90;;;;;;5050969;28;20278;-75
2023/01/16 12:49:48;;;;;;;;;;;2.70;99.90;;;;;;5050252;28;20113;-76
2023/01/16 12:52:32;;;;;;;;;;;2.70;99.90;;;;;;5050670;28;20263;-77
2023/01/16 12:55:18;;;;;;;;;;;2.60;99.90;;;;;;5050133;28;19928;-75
2023/01/16 12:57:52;;;;;;;;;;;2.60;99.90;;;;;;5050493;28;19959;-78
2023/01/16 13:00:22;;;;;;;;;;;2.70;99.90;;;;;;5049951;28;20349;-77
2023/01/16 13:02:51;;;;;;;;;;;2.70;99.90;;;;;;5050357;28;20031;-78
2023/01/16 13:05:18;;;;;;;;;;;2.70;99.90;;;;;;5051517;28;19913;-76
2023/01/16 13:08:02;;;;;;;;;;;2.70;99.90;;;;;;5053787;28;20063;-77
2023/01/16 13:13:26;;;;;;;;;;;2.80;99.90;;;;;;5062895;28;19924;-76
2023/01/16 13:16:01;;;;;;;;;;;2.70;99.90;;;;;;5060296;28;19927;-77
2023/01/16 13:18:47;;;;;;;;;;;2.70;99.90;;;;;;5061988;28;19913;-77
2023/01/16 13:21:16;;;;;;;;;;;2.70;99.90;;;;;;5060795;28;20023;-77
2023/01/16 13:23:41;;;;;;;;;;;2.70;99.90;;;;;;5059740;28;20362;-78
2023/01/16 13:26:11;;;;;;;;;;;2.70;99.90;;;;;;5061219;28;19969;-78
2023/01/16 13:28:51;;;;;;;;;;;2.80;99.90;;;;;;5061044;28;20254;-77
2023/01/16 13:31:16;;;;;;;;;;;2.80;99.90;;;;;;5060939;28;19973;-77
2023/01/16 13:33:43;;;;;;;;;;;2.80;99.90;;;;;;5061447;28;20003;-78
2023/01/16 13:36:27;;;;;;;;;;;2.90;99.90;;;;;;5061143;28;20249;-77
2023/01/16 13:38:55;;;;;;;;;;;2.90;99.90;;;;;;5061918;28;20004;-76
2023/01/16 13:41:23;;;;;;;;;;;2.90;99.90;;;;;;5062708;28;20366;-77
2023/01/16 13:47:02;;;;;;;;;;;2.90;99.90;;;;;;5064087;28;19976;-77
2023/01/16 13:49:28;;;;;;;;;;;2.90;99.90;;;;;;5063087;28;19967;-77
2023/01/16 13:51:53;;;;;;;;;;;3.00;99.90;;;;;;5063032;28;20274;-77
2023/01/16 13:54:26;;;;;;;;;;;3.00;99.90;;;;;;5063186;28;19943;-77
2023/01/16 13:56:56;;;;;;;;;;;3.00;99.90;;;;;;5064256;28;19934;-78
2023/01/16 13:59:29;;;;;;;;;;;3.00;99.90;;;;;;5054705;28;19909;-76
2023/01/16 14:01:56;;;;;;;;;;;3.00;99.90;;;;;;5052907;28;19941;-76
2023/01/16 14:04:23;;;;;;;;;;;3.00;99.90;;;;;;5054642;28;20310;-77
2023/01/16 14:06:49;;;;;;;;;;;3.00;99.90;;;;;;5073896;28;19913;-77
2023/01/16 14:09:18;;;;;;;;;;;3.00;99.90;;;;;;5074564;28;19985;-77
2023/01/16 14:12:16;;;;;;;;;;;3.00;99.90;;;;;;5072646;28;20269;-80
2023/01/16 14:17:27;;;;;;;;;;;3.00;99.90;;;;;;5074215;28;20007;-75
2023/01/16 14:19:57;;;;;;;;;;;3.00;99.90;;;;;;5073760;28;19908;-76
2023/01/16 14:24:54;;;;;;;;;;;2.90;99.90;;;;;;5061060;28;20031;-76
2023/01/16 14:27:28;;;;;;;;;;;2.90;99.90;;;;;;5054152;28;19940;-76
2023/01/16 14:29:59;;;;;;;;;;;2.90;99.90;;;;;;5053657;28;20005;-77
2023/01/16 14:32:25;;;;;;;;;;;2.90;99.90;;;;;;5054729;28;19925;-78
2023/01/16 14:34:57;;;;;;;;;;;2.90;99.90;;;;;;5073152;28;19909;-76
2023/01/16 14:37:23;;;;;;;;;;;2.90;99.90;;;;;;5074022;28;20009;-77
2023/01/16 14:39:50;;;;;;;;;;;2.90;99.90;;;;;;5073274;28;19908;-75
2023/01/16 14:56:29;;;;;;;;;;;2.90;99.90;;;;;;5053503;28;19939;-76
2023/01/16 14:59:15;;;;;;;;;;;2.90;99.90;;;;;;5053218;28;20010;-76
2023/01/16 15:04:50;;;;;;;;;;;2.80;99.90;;;;;;5053524;28;19919;-76
2023/01/16 15:07:17;;;;;;;;;;;2.80;99.90;;;;;;5053306;28;19920;-76
2023/01/16 15:09:46;;;;;;;;;;;2.80;99.90;;;;;;5053188;28;20305;-76
2023/01/16 15:12:19;;;;;;;;;;;2.80;99.90;;;;;;5053164;28;19912;-76
2023/01/16 15:14:54;;;;;;;;;;;2.80;99.90;;;;;;5052884;28;20366;-76
2023/01/16 15:22:58;;;;;;;;;;;2.80;99.90;;;;;;5052445;28;19916;-76
2023/01/16 15:25:42;;;;;;;;;;;2.80;99.90;;;;;;5053598;28;20293;-76
2023/01/16 15:28:14;;;;;;;;;;;2.80;99.90;;;;;;5052717;28;19909;-76
2023/01/16 15:30:40;;;;;;;;;;;2.80;99.90;;;;;;5053576;28;19916;-76
2023/01/16 15:36:13;;;;;;;;;;;2.80;99.90;;;;;;5058214;28;19919;-77
2023/01/16 15:38:39;;;;;;;;;;;2.80;99.90;;;;;;5073334;28;19917;-77
2023/01/16 15:41:04;;;;;;;;;;;2.80;99.90;;;;;;5072557;28;19924;-77
2023/01/16 15:46:34;;;;;;;;;;;2.70;99.90;;;;;;5072596;28;19919;-78
2023/01/16 15:49:23;;;;;;;;;;;2.70;99.90;;;;;;5072488;28;19924;-77
2023/01/16 15:51:50;;;;;;;;;;;2.70;99.90;;;;;;5063490;28;19909;-79
2023/01/16 15:54:15;;;;;;;;;;;2.70;99.90;;;;;;5071084;28;20026;-76
2023/01/16 15:56:46;;;;;;;;;;;2.60;99.90;;;;;;5070758;28;20284;-76
2023/01/16 15:59:21;;;;;;;;;;;2.60;99.90;;;;;;5071412;28;19950;-76
2023/01/16 16:01:46;;;;;;;;;;;2.60;99.90;;;;;;5070707;28;19909;-75
2023/01/16 16:04:12;;;;;;;;;;;2.60;99.90;;;;;;5071473;28;19962;-76
2023/01/16 16:06:41;;;;;;;;;;;2.50;99.90;;;;;;5071180;28;20085;-76
2023/01/16 16:09:13;;;;;;;;;;;2.50;99.90;;;;;;5070561;28;20409;-76
2023/01/16 16:11:51;;;;;;;;;;;2.50;99.90;;;;;;5071030;28;20350;-76
2023/01/16 16:20:33;;;;;;;;;;;2.30;99.90;;;;;;5047241;28;19928;-75
2023/01/16 16:23:14;;;;;;;;;;;2.30;99.90;;;;;;5069850;28;19908;-75
2023/01/16 16:26:09;;;;;;;;;;;2.20;99.90;;;;;;5070360;28;19931;-76